sensor_id;sensor_type;location;lat;lon;timestamp;P1;durP1;ratioP1;P2;durP2;ratioP2
21675;SDS011;10999;51.332;9.458;2023-05-08T00:00:10;10.75;;;5.18;;
21675;SDS011;10999;51.332;9.458;2023-05-08T00:02:39;9.70;;;5.30;;
21675;SDS011;10999;51.332;9.458;2023-05-08T00:05:07;11.15;;;5.47;;
21675;SDS011;10999;51.332;9.458;2023-05-08T00:07:35;10.13;;;5.35;;
21675;SDS011;10999;51.332;9.458;2023-05-08T00:10:03;9.73;;;4.72;;
21675;SDS011;10999;51.332;9.458;2023-05-08T00:12:32;12.85;;;5.97;;
21675;SDS011;10999;51.332;9.458;2023-05-08T00:15:00;12.10;;;6.22;;
21675;SDS011;10999;51.332;9.458;2023-05-08T00:17:28;11.00;;;5.93;;
21675;SDS011;10999;51.332;9.458;2023-05-08T00:19:56;13.02;;;5.53;;
21675;SDS011;10999;51.332;9.458;2023-05-08T00:22:22;12.65;;;5.72;;
21675;SDS011;10999;51.332;9.458;2023-05-08T00:24:49;11.05;;;5.88;;
21675;SDS011;10999;51.332;9.458;2023-05-08T00:27:16;9.95;;;5.43;;
21675;SDS011;10999;51.332;9.458;2023-05-08T00:29:43;10.32;;;5.07;;
21675;SDS011;10999;51.332;9.458;2023-05-08T00:32:10;11.60;;;5.88;;
21675;SDS011;10999;51.332;9.458;2023-05-08T00:34:37;10.52;;;5.85;;
21675;SDS011;10999;51.332;9.458;2023-05-08T00:37:03;10.63;;;5.50;;
21675;SDS011;10999;51.332;9.458;2023-05-08T00:39:30;13.38;;;6.10;;
21675;SDS011;10999;51.332;9.458;2023-05-08T00:41:57;11.85;;;6.13;;
21675;SDS011;10999;51.332;9.458;2023-05-08T00:44:24;10.80;;;5.72;;
21675;SDS011;10999;51.332;9.458;2023-05-08T00:46:51;13.10;;;6.18;;
21675;SDS011;10999;51.332;9.458;2023-05-08T00:49:18;10.00;;;5.45;;
21675;SDS011;10999;51.332;9.458;2023-05-08T00:51:46;11.02;;;6.55;;
21675;SDS011;10999;51.332;9.458;2023-05-08T00:54:19;12.80;;;6.47;;
21675;SDS011;10999;51.332;9.458;2023-05-08T00:56:48;12.82;;;6.28;;
21675;SDS011;10999;51.332;9.458;2023-05-08T00:59:17;11.35;;;6.30;;
21675;SDS011;10999;51.332;9.458;2023-05-08T01:01:48;11.82;;;5.68;;
21675;SDS011;10999;51.332;9.458;2023-05-08T01:04:22;12.00;;;5.63;;
21675;SDS011;10999;51.332;9.458;2023-05-08T01:06:51;12.13;;;6.25;;
21675;SDS011;10999;51.332;9.458;2023-05-08T01:09:21;11.00;;;5.95;;
21675;SDS011;10999;51.332;9.458;2023-05-08T01:17:26;11.35;;;5.68;;
21675;SDS011;10999;51.332;9.458;2023-05-08T01:20:14;11.73;;;6.53;;
21675;SDS011;10999;51.332;9.458;2023-05-08T01:31:07;11.15;;;6.03;;
21675;SDS011;10999;51.332;9.458;2023-05-08T01:34:07;13.30;;;6.88;;
21675;SDS011;10999;51.332;9.458;2023-05-08T01:39:21;13.63;;;7.18;;
21675;SDS011;10999;51.332;9.458;2023-05-08T01:44:43;11.05;;;5.93;;
21675;SDS011;10999;51.332;9.458;2023-05-08T01:47:14;9.80;;;5.40;;
21675;SDS011;10999;51.332;9.458;2023-05-08T01:49:44;10.20;;;5.25;;
21675;SDS011;10999;51.332;9.458;2023-05-08T01:55:07;13.18;;;6.10;;
21675;SDS011;10999;51.332;9.458;2023-05-08T01:57:39;12.20;;;6.22;;
21675;SDS011;10999;51.332;9.458;2023-05-08T02:00:11;11.40;;;5.80;;
21675;SDS011;10999;51.332;9.458;2023-05-08T02:02:43;11.25;;;5.93;;
21675;SDS011;10999;51.332;9.458;2023-05-08T02:05:12;11.80;;;6.10;;
21675;SDS011;10999;51.332;9.458;2023-05-08T02:07:41;11.40;;;5.85;;
21675;SDS011;10999;51.332;9.458;2023-05-08T02:10:09;12.32;;;6.30;;
21675;SDS011;10999;51.332;9.458;2023-05-08T02:12:40;11.07;;;5.40;;
21675;SDS011;10999;51.332;9.458;2023-05-08T02:15:09;12.88;;;6.53;;
21675;SDS011;10999;51.332;9.458;2023-05-08T02:17:39;10.82;;;6.07;;
21675;SDS011;10999;51.332;9.458;2023-05-08T02:20:07;11.55;;;5.70;;
21675;SDS011;10999;51.332;9.458;2023-05-08T02:22:41;10.18;;;5.82;;
21675;SDS011;10999;51.332;9.458;2023-05-08T02:25:10;9.93;;;5.38;;
21675;SDS011;10999;51.332;9.458;2023-05-08T02:27:47;12.00;;;6.15;;
21675;SDS011;10999;51.332;9.458;2023-05-08T02:30:15;10.43;;;5.80;;
21675;SDS011;10999;51.332;9.458;2023-05-08T02:32:43;13.23;;;5.90;;
21675;SDS011;10999;51.332;9.458;2023-05-08T02:35:11;10.02;;;5.78;;
21675;SDS011;10999;51.332;9.458;2023-05-08T02:37:41;11.07;;;5.78;;
21675;SDS011;10999;51.332;9.458;2023-05-08T02:40:11;10.05;;;5.25;;
21675;SDS011;10999;51.332;9.458;2023-05-08T02:42:40;11.73;;;6.40;;
21675;SDS011;10999;51.332;9.458;2023-05-08T02:45:07;11.32;;;6.32;;
21675;SDS011;10999;51.332;9.458;2023-05-08T02:50:12;11.48;;;6.15;;
21675;SDS011;10999;51.332;9.458;2023-05-08T02:52:47;10.63;;;6.13;;
21675;SDS011;10999;51.332;9.458;2023-05-08T02:55:29;10.82;;;5.95;;
21675;SDS011;10999;51.332;9.458;2023-05-08T03:01:07;11.27;;;5.80;;
21675;SDS011;10999;51.332;9.458;2023-05-08T03:04:00;12.43;;;6.00;;
21675;SDS011;10999;51.332;9.458;2023-05-08T03:06:35;12.27;;;6.82;;
21675;SDS011;10999;51.332;9.458;2023-05-08T03:09:11;11.32;;;5.72;;
21675;SDS011;10999;51.332;9.458;2023-05-08T03:11:47;15.68;;;7.05;;
21675;SDS011;10999;51.332;9.458;2023-05-08T03:14:18;16.92;;;15.38;;
21675;SDS011;10999;51.332;9.458;2023-05-08T03:16:48;12.48;;;6.80;;
21675;SDS011;10999;51.332;9.458;2023-05-08T03:19:25;12.18;;;6.30;;
21675;SDS011;10999;51.332;9.458;2023-05-08T03:21:55;13.32;;;6.85;;
21675;SDS011;10999;51.332;9.458;2023-05-08T03:24:23;12.85;;;6.93;;
21675;SDS011;10999;51.332;9.458;2023-05-08T03:26:53;11.98;;;6.50;;
21675;SDS011;10999;51.332;9.458;2023-05-08T03:29:22;13.50;;;6.35;;
21675;SDS011;10999;51.332;9.458;2023-05-08T03:31:50;11.85;;;6.05;;
21675;SDS011;10999;51.332;9.458;2023-05-08T03:34:19;13.18;;;6.45;;
21675;SDS011;10999;51.332;9.458;2023-05-08T03:36:48;15.80;;;7.88;;
21675;SDS011;10999;51.332;9.458;2023-05-08T03:39:16;12.93;;;7.43;;
21675;SDS011;10999;51.332;9.458;2023-05-08T03:41:43;11.82;;;6.38;;
21675;SDS011;10999;51.332;9.458;2023-05-08T03:44:11;12.75;;;6.78;;
21675;SDS011;10999;51.332;9.458;2023-05-08T03:46:39;17.45;;;7.45;;
21675;SDS011;10999;51.332;9.458;2023-05-08T03:49:07;14.10;;;7.22;;
21675;SDS011;10999;51.332;9.458;2023-05-08T03:51:35;13.07;;;6.00;;
21675;SDS011;10999;51.332;9.458;2023-05-08T03:54:06;12.70;;;6.47;;
21675;SDS011;10999;51.332;9.458;2023-05-08T03:56:33;11.88;;;5.90;;
21675;SDS011;10999;51.332;9.458;2023-05-08T03:59:12;13.15;;;6.85;;
21675;SDS011;10999;51.332;9.458;2023-05-08T04:01:44;12.48;;;6.75;;
21675;SDS011;10999;51.332;9.458;2023-05-08T04:04:36;14.50;;;6.35;;
21675;SDS011;10999;51.332;9.458;2023-05-08T04:07:26;15.35;;;7.55;;
21675;SDS011;10999;51.332;9.458;2023-05-08T04:12:56;14.55;;;7.20;;
21675;SDS011;10999;51.332;9.458;2023-05-08T04:15:32;12.57;;;7.03;;
21675;SDS011;10999;51.332;9.458;2023-05-08T04:18:05;15.05;;;7.63;;
21675;SDS011;10999;51.332;9.458;2023-05-08T04:20:37;12.40;;;6.57;;
21675;SDS011;10999;51.332;9.458;2023-05-08T04:23:06;12.55;;;6.53;;
21675;SDS011;10999;51.332;9.458;2023-05-08T04:25:35;12.75;;;6.82;;
21675;SDS011;10999;51.332;9.458;2023-05-08T04:28:03;13.35;;;6.40;;
21675;SDS011;10999;51.332;9.458;2023-05-08T04:30:31;15.52;;;7.68;;
21675;SDS011;10999;51.332;9.458;2023-05-08T04:32:59;13.82;;;7.53;;
21675;SDS011;10999;51.332;9.458;2023-05-08T04:35:29;12.43;;;6.63;;
21675;SDS011;10999;51.332;9.458;2023-05-08T04:37:57;13.68;;;7.57;;
21675;SDS011;10999;51.332;9.458;2023-05-08T04:40:24;14.68;;;7.82;;
21675;SDS011;10999;51.332;9.458;2023-05-08T04:42:51;13.15;;;7.45;;
21675;SDS011;10999;51.332;9.458;2023-05-08T04:45:18;13.00;;;6.63;;
21675;SDS011;10999;51.332;9.458;2023-05-08T04:47:45;12.25;;;6.65;;
21675;SDS011;10999;51.332;9.458;2023-05-08T04:50:12;11.77;;;6.63;;
21675;SDS011;10999;51.332;9.458;2023-05-08T04:52:39;12.07;;;6.47;;
21675;SDS011;10999;51.332;9.458;2023-05-08T04:55:07;14.48;;;7.38;;
21675;SDS011;10999;51.332;9.458;2023-05-08T04:57:34;17.15;;;8.00;;
21675;SDS011;10999;51.332;9.458;2023-05-08T05:00:01;15.23;;;7.47;;
21675;SDS011;10999;51.332;9.458;2023-05-08T05:02:28;14.52;;;6.82;;
21675;SDS011;10999;51.332;9.458;2023-05-08T05:04:55;12.27;;;6.95;;
21675;SDS011;10999;51.332;9.458;2023-05-08T05:07:24;12.00;;;7.45;;
21675;SDS011;10999;51.332;9.458;2023-05-08T05:09:50;13.95;;;7.68;;
21675;SDS011;10999;51.332;9.458;2023-05-08T05:12:17;14.88;;;7.57;;
21675;SDS011;10999;51.332;9.458;2023-05-08T05:14:44;15.13;;;7.38;;
21675;SDS011;10999;51.332;9.458;2023-05-08T05:17:11;14.40;;;7.50;;
21675;SDS011;10999;51.332;9.458;2023-05-08T05:19:38;13.88;;;7.28;;
21675;SDS011;10999;51.332;9.458;2023-05-08T05:22:05;15.38;;;7.88;;
21675;SDS011;10999;51.332;9.458;2023-05-08T05:24:33;14.35;;;8.00;;
21675;SDS011;10999;51.332;9.458;2023-05-08T05:27:04;12.90;;;7.10;;
21675;SDS011;10999;51.332;9.458;2023-05-08T05:29:31;14.40;;;7.30;;
21675;SDS011;10999;51.332;9.458;2023-05-08T05:31:58;15.55;;;8.20;;
21675;SDS011;10999;51.332;9.458;2023-05-08T05:34:25;12.82;;;7.50;;
21675;SDS011;10999;51.332;9.458;2023-05-08T05:36:52;13.73;;;7.55;;
21675;SDS011;10999;51.332;9.458;2023-05-08T05:39:18;12.13;;;6.53;;
21675;SDS011;10999;51.332;9.458;2023-05-08T05:41:45;15.82;;;7.65;;
21675;SDS011;10999;51.332;9.458;2023-05-08T05:44:12;16.40;;;7.97;;
21675;SDS011;10999;51.332;9.458;2023-05-08T05:46:39;15.48;;;7.85;;
21675;SDS011;10999;51.332;9.458;2023-05-08T05:49:09;14.68;;;7.57;;
21675;SDS011;10999;51.332;9.458;2023-05-08T05:51:37;13.70;;;7.07;;
21675;SDS011;10999;51.332;9.458;2023-05-08T05:54:04;14.65;;;7.15;;
21675;SDS011;10999;51.332;9.458;2023-05-08T05:56:30;13.15;;;6.68;;
21675;SDS011;10999;51.332;9.458;2023-05-08T05:58:57;13.05;;;7.43;;
21675;SDS011;10999;51.332;9.458;2023-05-08T06:01:24;12.43;;;6.65;;
21675;SDS011;10999;51.332;9.458;2023-05-08T06:03:54;13.85;;;6.97;;
21675;SDS011;10999;51.332;9.458;2023-05-08T06:06:21;14.15;;;8.15;;
21675;SDS011;10999;51.332;9.458;2023-05-08T06:08:47;13.40;;;7.38;;
21675;SDS011;10999;51.332;9.458;2023-05-08T06:11:14;13.27;;;7.15;;
21675;SDS011;10999;51.332;9.458;2023-05-08T06:13:41;12.80;;;7.32;;
21675;SDS011;10999;51.332;9.458;2023-05-08T06:16:09;16.10;;;7.82;;
21675;SDS011;10999;51.332;9.458;2023-05-08T06:18:36;13.15;;;8.05;;
21675;SDS011;10999;51.332;9.458;2023-05-08T06:21:02;14.45;;;7.43;;
21675;SDS011;10999;51.332;9.458;2023-05-08T06:23:29;12.52;;;6.97;;
21675;SDS011;10999;51.332;9.458;2023-05-08T06:25:56;12.45;;;6.90;;
21675;SDS011;10999;51.332;9.458;2023-05-08T06:28:23;11.98;;;7.10;;
21675;SDS011;10999;51.332;9.458;2023-05-08T06:30:51;12.02;;;6.47;;
21675;SDS011;10999;51.332;9.458;2023-05-08T06:33:18;12.38;;;7.05;;
21675;SDS011;10999;51.332;9.458;2023-05-08T06:35:45;12.48;;;7.18;;
21675;SDS011;10999;51.332;9.458;2023-05-08T06:38:13;12.38;;;7.18;;
21675;SDS011;10999;51.332;9.458;2023-05-08T06:40:46;12.77;;;7.35;;
21675;SDS011;10999;51.332;9.458;2023-05-08T06:43:15;12.23;;;7.18;;
21675;SDS011;10999;51.332;9.458;2023-05-08T06:45:42;12.90;;;6.78;;
21675;SDS011;10999;51.332;9.458;2023-05-08T06:48:09;13.43;;;7.70;;
21675;SDS011;10999;51.332;9.458;2023-05-08T06:50:36;13.30;;;7.65;;
21675;SDS011;10999;51.332;9.458;2023-05-08T06:53:04;13.77;;;7.13;;
21675;SDS011;10999;51.332;9.458;2023-05-08T06:55:32;11.82;;;6.53;;
21675;SDS011;10999;51.332;9.458;2023-05-08T06:57:59;13.50;;;7.40;;
21675;SDS011;10999;51.332;9.458;2023-05-08T07:00:25;15.57;;;7.22;;
21675;SDS011;10999;51.332;9.458;2023-05-08T07:02:52;12.40;;;7.22;;
21675;SDS011;10999;51.332;9.458;2023-05-08T07:05:19;14.80;;;7.13;;
21675;SDS011;10999;51.332;9.458;2023-05-08T07:07:46;13.23;;;7.25;;
21675;SDS011;10999;51.332;9.458;2023-05-08T07:10:13;13.43;;;6.90;;
21675;SDS011;10999;51.332;9.458;2023-05-08T07:12:41;11.98;;;7.60;;
21675;SDS011;10999;51.332;9.458;2023-05-08T07:15:08;13.20;;;6.85;;
21675;SDS011;10999;51.332;9.458;2023-05-08T07:17:50;14.27;;;6.75;;
21675;SDS011;10999;51.332;9.458;2023-05-08T07:20:17;12.15;;;6.88;;
21675;SDS011;10999;51.332;9.458;2023-05-08T07:22:43;11.27;;;5.80;;
21675;SDS011;10999;51.332;9.458;2023-05-08T07:25:11;11.80;;;6.90;;
21675;SDS011;10999;51.332;9.458;2023-05-08T07:27:38;12.35;;;6.32;;
21675;SDS011;10999;51.332;9.458;2023-05-08T07:30:05;12.25;;;6.80;;
21675;SDS011;10999;51.332;9.458;2023-05-08T07:32:32;12.95;;;6.60;;
21675;SDS011;10999;51.332;9.458;2023-05-08T07:35:00;14.00;;;6.50;;
21675;SDS011;10999;51.332;9.458;2023-05-08T07:37:28;11.50;;;6.75;;
21675;SDS011;10999;51.332;9.458;2023-05-08T07:39:54;12.25;;;6.43;;
21675;SDS011;10999;51.332;9.458;2023-05-08T07:42:21;11.10;;;5.72;;
21675;SDS011;10999;51.332;9.458;2023-05-08T07:44:48;12.30;;;7.15;;
21675;SDS011;10999;51.332;9.458;2023-05-08T07:47:20;11.57;;;6.38;;
21675;SDS011;10999;51.332;9.458;2023-05-08T07:49:47;10.73;;;6.13;;
21675;SDS011;10999;51.332;9.458;2023-05-08T07:52:14;10.65;;;6.50;;
21675;SDS011;10999;51.332;9.458;2023-05-08T07:54:41;12.38;;;7.75;;
21675;SDS011;10999;51.332;9.458;2023-05-08T07:57:07;11.30;;;6.80;;
21675;SDS011;10999;51.332;9.458;2023-05-08T07:59:34;13.05;;;6.38;;
21675;SDS011;10999;51.332;9.458;2023-05-08T08:02:01;10.75;;;6.35;;
21675;SDS011;10999;51.332;9.458;2023-05-08T08:04:28;12.80;;;6.78;;
21675;SDS011;10999;51.332;9.458;2023-05-08T08:06:55;10.88;;;6.13;;
21675;SDS011;10999;51.332;9.458;2023-05-08T08:09:22;11.45;;;6.00;;
21675;SDS011;10999;51.332;9.458;2023-05-08T08:11:49;10.77;;;6.13;;
21675;SDS011;10999;51.332;9.458;2023-05-08T08:14:16;15.52;;;7.05;;
21675;SDS011;10999;51.332;9.458;2023-05-08T08:16:42;12.20;;;7.28;;
21675;SDS011;10999;51.332;9.458;2023-05-08T08:19:09;10.38;;;6.32;;
21675;SDS011;10999;51.332;9.458;2023-05-08T08:21:40;12.80;;;6.47;;
21675;SDS011;10999;51.332;9.458;2023-05-08T08:24:08;11.48;;;6.35;;
21675;SDS011;10999;51.332;9.458;2023-05-08T08:26:35;9.75;;;5.47;;
21675;SDS011;10999;51.332;9.458;2023-05-08T08:29:02;10.20;;;5.70;;
21675;SDS011;10999;51.332;9.458;2023-05-08T08:31:29;10.98;;;6.18;;
21675;SDS011;10999;51.332;9.458;2023-05-08T08:33:56;14.10;;;6.63;;
21675;SDS011;10999;51.332;9.458;2023-05-08T08:36:23;10.75;;;6.53;;
21675;SDS011;10999;51.332;9.458;2023-05-08T08:38:50;10.88;;;6.10;;
21675;SDS011;10999;51.332;9.458;2023-05-08T08:41:17;10.18;;;6.18;;
21675;SDS011;10999;51.332;9.458;2023-05-08T08:43:44;12.00;;;5.60;;
21675;SDS011;10999;51.332;9.458;2023-05-08T08:46:11;11.02;;;5.45;;
21675;SDS011;10999;51.332;9.458;2023-05-08T08:48:42;11.23;;;6.45;;
21675;SDS011;10999;51.332;9.458;2023-05-08T08:51:26;10.75;;;5.80;;
21675;SDS011;10999;51.332;9.458;2023-05-08T08:56:33;13.10;;;5.88;;
21675;SDS011;10999;51.332;9.458;2023-05-08T08:59:03;11.02;;;6.15;;
21675;SDS011;10999;51.332;9.458;2023-05-08T09:01:36;11.88;;;6.40;;
21675;SDS011;10999;51.332;9.458;2023-05-08T09:04:04;12.82;;;7.20;;
21675;SDS011;10999;51.332;9.458;2023-05-08T09:06:35;12.27;;;6.40;;
21675;SDS011;10999;51.332;9.458;2023-05-08T09:09:03;13.45;;;6.55;;
21675;SDS011;10999;51.332;9.458;2023-05-08T09:11:30;10.98;;;6.45;;
21675;SDS011;10999;51.332;9.458;2023-05-08T09:13:57;12.98;;;6.78;;
21675;SDS011;10999;51.332;9.458;2023-05-08T09:16:24;11.30;;;6.55;;
21675;SDS011;10999;51.332;9.458;2023-05-08T09:18:53;11.25;;;6.53;;
21675;SDS011;10999;51.332;9.458;2023-05-08T09:21:20;13.27;;;6.60;;
21675;SDS011;10999;51.332;9.458;2023-05-08T09:23:54;10.57;;;5.30;;
21675;SDS011;10999;51.332;9.458;2023-05-08T09:26:27;11.05;;;6.43;;
21675;SDS011;10999;51.332;9.458;2023-05-08T09:29:16;11.73;;;5.93;;
21675;SDS011;10999;51.332;9.458;2023-05-08T09:31:45;9.77;;;5.28;;
21675;SDS011;10999;51.332;9.458;2023-05-08T09:34:24;11.52;;;5.50;;
21675;SDS011;10999;51.332;9.458;2023-05-08T09:36:53;12.07;;;5.88;;
21675;SDS011;10999;51.332;9.458;2023-05-08T09:39:22;9.57;;;5.88;;
21675;SDS011;10999;51.332;9.458;2023-05-08T09:41:55;10.85;;;5.75;;
21675;SDS011;10999;51.332;9.458;2023-05-08T09:44:23;9.60;;;5.72;;
21675;SDS011;10999;51.332;9.458;2023-05-08T09:46:50;10.80;;;5.97;;
21675;SDS011;10999;51.332;9.458;2023-05-08T09:49:16;9.40;;;5.95;;
21675;SDS011;10999;51.332;9.458;2023-05-08T09:51:50;9.90;;;5.43;;
21675;SDS011;10999;51.332;9.458;2023-05-08T09:54:20;8.52;;;4.95;;
21675;SDS011;10999;51.332;9.458;2023-05-08T09:56:47;9.45;;;5.53;;
21675;SDS011;10999;51.332;9.458;2023-05-08T09:59:20;9.68;;;4.93;;
21675;SDS011;10999;51.332;9.458;2023-05-08T10:01:57;10.98;;;6.13;;
21675;SDS011;10999;51.332;9.458;2023-05-08T10:04:31;10.00;;;5.43;;
21675;SDS011;10999;51.332;9.458;2023-05-08T10:06:58;9.02;;;4.95;;
21675;SDS011;10999;51.332;9.458;2023-05-08T10:09:25;11.65;;;5.10;;
21675;SDS011;10999;51.332;9.458;2023-05-08T10:12:08;9.18;;;5.35;;
21675;SDS011;10999;51.332;9.458;2023-05-08T10:14:34;9.73;;;4.95;;
21675;SDS011;10999;51.332;9.458;2023-05-08T10:17:01;10.30;;;5.65;;
21675;SDS011;10999;51.332;9.458;2023-05-08T10:19:35;9.15;;;5.10;;
21675;SDS011;10999;51.332;9.458;2023-05-08T10:22:07;10.43;;;5.78;;
21675;SDS011;10999;51.332;9.458;2023-05-08T10:24:38;9.75;;;5.18;;
21675;SDS011;10999;51.332;9.458;2023-05-08T10:29:46;9.60;;;5.20;;
21675;SDS011;10999;51.332;9.458;2023-05-08T10:32:18;12.50;;;6.18;;
21675;SDS011;10999;51.332;9.458;2023-05-08T10:34:51;9.43;;;5.38;;
21675;SDS011;10999;51.332;9.458;2023-05-08T10:37:20;9.85;;;5.25;;
21675;SDS011;10999;51.332;9.458;2023-05-08T10:39:47;10.18;;;4.80;;
21675;SDS011;10999;51.332;9.458;2023-05-08T10:42:15;8.82;;;4.60;;
21675;SDS011;10999;51.332;9.458;2023-05-08T10:44:42;8.07;;;4.57;;
21675;SDS011;10999;51.332;9.458;2023-05-08T10:47:12;9.68;;;4.95;;
21675;SDS011;10999;51.332;9.458;2023-05-08T10:52:30;10.63;;;5.57;;
21675;SDS011;10999;51.332;9.458;2023-05-08T11:00:33;8.85;;;4.80;;
21675;SDS011;10999;51.332;9.458;2023-05-08T11:03:19;8.57;;;4.45;;
21675;SDS011;10999;51.332;9.458;2023-05-08T11:05:58;8.27;;;4.47;;
21675;SDS011;10999;51.332;9.458;2023-05-08T11:08:26;8.20;;;5.30;;
21675;SDS011;10999;51.332;9.458;2023-05-08T11:13:32;8.63;;;4.70;;
21675;SDS011;10999;51.332;9.458;2023-05-08T11:16:03;8.95;;;4.43;;
21675;SDS011;10999;51.332;9.458;2023-05-08T11:18:36;9.02;;;4.78;;
21675;SDS011;10999;51.332;9.458;2023-05-08T11:23:46;9.60;;;5.30;;
21675;SDS011;10999;51.332;9.458;2023-05-08T11:26:22;8.32;;;4.40;;
21675;SDS011;10999;51.332;9.458;2023-05-08T11:29:14;8.48;;;4.35;;
21675;SDS011;10999;51.332;9.458;2023-05-08T11:31:51;8.57;;;4.35;;
21675;SDS011;10999;51.332;9.458;2023-05-08T11:39:37;9.10;;;4.80;;
21675;SDS011;10999;51.332;9.458;2023-05-08T11:42:50;8.43;;;4.10;;
21675;SDS011;10999;51.332;9.458;2023-05-08T11:45:05;7.35;;;3.97;;
21675;SDS011;10999;51.332;9.458;2023-05-08T11:47:37;6.93;;;4.07;;
21675;SDS011;10999;51.332;9.458;2023-05-08T11:50:04;7.10;;;4.00;;
21675;SDS011;10999;51.332;9.458;2023-05-08T11:52:35;6.75;;;3.90;;
21675;SDS011;10999;51.332;9.458;2023-05-08T11:55:03;6.15;;;3.40;;
21675;SDS011;10999;51.332;9.458;2023-05-08T11:57:30;7.40;;;4.25;;
21675;SDS011;10999;51.332;9.458;2023-05-08T12:02:36;6.22;;;3.60;;
21675;SDS011;10999;51.332;9.458;2023-05-08T12:05:05;6.20;;;3.42;;
21675;SDS011;10999;51.332;9.458;2023-05-08T12:07:43;7.75;;;3.70;;
21675;SDS011;10999;51.332;9.458;2023-05-08T12:10:13;7.18;;;3.40;;
21675;SDS011;10999;51.332;9.458;2023-05-08T12:12:42;6.57;;;3.20;;
21675;SDS011;10999;51.332;9.458;2023-05-08T12:15:13;6.22;;;3.50;;
21675;SDS011;10999;51.332;9.458;2023-05-08T12:17:41;7.40;;;3.67;;
21675;SDS011;10999;51.332;9.458;2023-05-08T12:20:11;6.55;;;3.35;;
21675;SDS011;10999;51.332;9.458;2023-05-08T12:22:40;7.88;;;3.95;;
21675;SDS011;10999;51.332;9.458;2023-05-08T12:25:08;7.57;;;3.50;;
21675;SDS011;10999;51.332;9.458;2023-05-08T12:27:37;5.88;;;2.90;;
21675;SDS011;10999;51.332;9.458;2023-05-08T12:30:07;6.90;;;3.83;;
21675;SDS011;10999;51.332;9.458;2023-05-08T12:32:36;5.68;;;3.22;;
21675;SDS011;10999;51.332;9.458;2023-05-08T12:35:12;6.95;;;3.75;;
21675;SDS011;10999;51.332;9.458;2023-05-08T12:37:39;6.00;;;3.42;;
21675;SDS011;10999;51.332;9.458;2023-05-08T12:40:06;6.68;;;3.58;;
21675;SDS011;10999;51.332;9.458;2023-05-08T12:42:47;6.60;;;3.67;;
21675;SDS011;10999;51.332;9.458;2023-05-08T12:45:16;7.47;;;4.32;;
21675;SDS011;10999;51.332;9.458;2023-05-08T12:47:47;6.03;;;3.53;;
21675;SDS011;10999;51.332;9.458;2023-05-08T12:50:14;6.47;;;3.00;;
21675;SDS011;10999;51.332;9.458;2023-05-08T12:52:42;7.30;;;3.70;;
21675;SDS011;10999;51.332;9.458;2023-05-08T12:55:29;7.28;;;3.50;;
21675;SDS011;10999;51.332;9.458;2023-05-08T12:58:06;7.50;;;4.15;;
21675;SDS011;10999;51.332;9.458;2023-05-08T13:00:41;6.32;;;3.45;;
21675;SDS011;10999;51.332;9.458;2023-05-08T13:03:10;6.85;;;3.33;;
21675;SDS011;10999;51.332;9.458;2023-05-08T13:05:40;8.65;;;3.97;;
21675;SDS011;10999;51.332;9.458;2023-05-08T13:08:08;6.07;;;3.55;;
21675;SDS011;10999;51.332;9.458;2023-05-08T13:10:42;6.32;;;3.50;;
21675;SDS011;10999;51.332;9.458;2023-05-08T13:13:16;6.28;;;3.03;;
21675;SDS011;10999;51.332;9.458;2023-05-08T13:15:45;5.75;;;3.17;;
21675;SDS011;10999;51.332;9.458;2023-05-08T13:18:13;7.47;;;3.53;;
21675;SDS011;10999;51.332;9.458;2023-05-08T13:20:40;7.03;;;3.55;;
21675;SDS011;10999;51.332;9.458;2023-05-08T13:23:07;7.22;;;2.83;;
21675;SDS011;10999;51.332;9.458;2023-05-08T13:25:35;7.00;;;3.13;;
21675;SDS011;10999;51.332;9.458;2023-05-08T13:28:04;7.07;;;3.42;;
21675;SDS011;10999;51.332;9.458;2023-05-08T13:30:32;6.40;;;3.42;;
21675;SDS011;10999;51.332;9.458;2023-05-08T13:32:59;6.97;;;3.83;;
21675;SDS011;10999;51.332;9.458;2023-05-08T13:35:26;7.45;;;3.35;;
21675;SDS011;10999;51.332;9.458;2023-05-08T13:37:54;7.10;;;3.67;;
21675;SDS011;10999;51.332;9.458;2023-05-08T13:40:21;7.35;;;3.63;;
21675;SDS011;10999;51.332;9.458;2023-05-08T13:42:49;6.35;;;3.70;;
21675;SDS011;10999;51.332;9.458;2023-05-08T13:45:15;7.10;;;3.33;;
21675;SDS011;10999;51.332;9.458;2023-05-08T13:47:46;6.95;;;3.33;;
21675;SDS011;10999;51.332;9.458;2023-05-08T13:50:14;6.55;;;3.58;;
21675;SDS011;10999;51.332;9.458;2023-05-08T13:52:42;6.72;;;3.13;;
21675;SDS011;10999;51.332;9.458;2023-05-08T13:55:09;5.93;;;3.20;;
21675;SDS011;10999;51.332;9.458;2023-05-08T13:57:39;5.63;;;3.30;;
21675;SDS011;10999;51.332;9.458;2023-05-08T14:00:07;7.65;;;3.60;;
21675;SDS011;10999;51.332;9.458;2023-05-08T14:02:34;7.53;;;3.40;;
21675;SDS011;10999;51.332;9.458;2023-05-08T14:05:03;5.22;;;2.63;;
21675;SDS011;10999;51.332;9.458;2023-05-08T14:07:33;5.90;;;3.00;;
21675;SDS011;10999;51.332;9.458;2023-05-08T14:10:00;6.28;;;3.00;;
21675;SDS011;10999;51.332;9.458;2023-05-08T14:12:28;6.80;;;3.60;;
21675;SDS011;10999;51.332;9.458;2023-05-08T14:14:55;6.70;;;3.50;;
21675;SDS011;10999;51.332;9.458;2023-05-08T14:17:22;6.80;;;3.30;;
21675;SDS011;10999;51.332;9.458;2023-05-08T14:19:49;6.90;;;3.38;;
21675;SDS011;10999;51.332;9.458;2023-05-08T14:22:15;8.88;;;3.67;;
21675;SDS011;10999;51.332;9.458;2023-05-08T14:24:42;7.63;;;3.88;;
21675;SDS011;10999;51.332;9.458;2023-05-08T14:27:09;7.97;;;3.28;;
21675;SDS011;10999;51.332;9.458;2023-05-08T14:29:36;7.43;;;3.03;;
21675;SDS011;10999;51.332;9.458;2023-05-08T14:32:03;5.78;;;3.10;;
21675;SDS011;10999;51.332;9.458;2023-05-08T14:34:30;6.20;;;3.28;;
21675;SDS011;10999;51.332;9.458;2023-05-08T14:36:57;7.10;;;3.40;;
21675;SDS011;10999;51.332;9.458;2023-05-08T14:39:24;6.28;;;3.42;;
21675;SDS011;10999;51.332;9.458;2023-05-08T14:41:50;6.63;;;3.10;;
21675;SDS011;10999;51.332;9.458;2023-05-08T14:44:37;5.60;;;3.25;;
21675;SDS011;10999;51.332;9.458;2023-05-08T14:47:04;6.95;;;3.33;;
21675;SDS011;10999;51.332;9.458;2023-05-08T14:49:31;5.53;;;3.28;;
21675;SDS011;10999;51.332;9.458;2023-05-08T14:52:18;7.22;;;3.45;;
21675;SDS011;10999;51.332;9.458;2023-05-08T14:54:45;6.90;;;3.67;;
21675;SDS011;10999;51.332;9.458;2023-05-08T14:57:18;5.45;;;2.92;;
21675;SDS011;10999;51.332;9.458;2023-05-08T14:59:45;7.10;;;3.25;;
21675;SDS011;10999;51.332;9.458;2023-05-08T15:02:20;6.75;;;4.03;;
21675;SDS011;10999;51.332;9.458;2023-05-08T15:04:48;6.28;;;3.60;;
21675;SDS011;10999;51.332;9.458;2023-05-08T15:07:15;6.07;;;3.05;;
21675;SDS011;10999;51.332;9.458;2023-05-08T15:09:42;7.05;;;3.08;;
21675;SDS011;10999;51.332;9.458;2023-05-08T15:12:08;7.35;;;2.92;;
21675;SDS011;10999;51.332;9.458;2023-05-08T15:14:35;6.95;;;3.53;;
21675;SDS011;10999;51.332;9.458;2023-05-08T15:17:02;5.05;;;3.10;;
21675;SDS011;10999;51.332;9.458;2023-05-08T15:19:29;6.43;;;3.20;;
21675;SDS011;10999;51.332;9.458;2023-05-08T15:21:55;7.40;;;3.78;;
21675;SDS011;10999;51.332;9.458;2023-05-08T15:24:22;6.70;;;3.25;;
21675;SDS011;10999;51.332;9.458;2023-05-08T15:26:49;6.18;;;3.20;;
21675;SDS011;10999;51.332;9.458;2023-05-08T15:29:16;5.80;;;3.10;;
21675;SDS011;10999;51.332;9.458;2023-05-08T15:31:42;6.68;;;3.42;;
21675;SDS011;10999;51.332;9.458;2023-05-08T15:34:09;5.93;;;3.30;;
21675;SDS011;10999;51.332;9.458;2023-05-08T15:36:36;6.97;;;3.42;;
21675;SDS011;10999;51.332;9.458;2023-05-08T15:39:03;6.32;;;3.40;;
21675;SDS011;10999;51.332;9.458;2023-05-08T15:41:29;4.75;;;2.97;;
21675;SDS011;10999;51.332;9.458;2023-05-08T15:43:56;6.28;;;3.42;;
21675;SDS011;10999;51.332;9.458;2023-05-08T15:46:23;5.90;;;3.10;;
21675;SDS011;10999;51.332;9.458;2023-05-08T15:48:49;5.13;;;2.65;;
21675;SDS011;10999;51.332;9.458;2023-05-08T15:51:16;5.47;;;2.88;;